createdAt,value
2022-10-08T00:01:47.123Z,25.05
2022-10-08T00:06:41.467Z,24.40
2022-10-08T00:11:37.946Z,26.35
2022-10-08T00:16:40.230Z,30.52
2022-10-08T00:21:36.669Z,34.58
2022-10-08T00:26:32.147Z,31.80
2022-10-08T00:31:32.116Z,34.00
2022-10-08T00:36:28.085Z,30.40
2022-10-08T00:41:23.802Z,29.50
2022-10-08T00:46:26.453Z,31.92
2022-10-08T00:51:21.051Z,32.60
2022-10-08T00:56:14.051Z,27.85
2022-10-08T01:01:08.131Z,31.67
2022-10-08T01:06:19.301Z,30.50
2022-10-08T01:11:15.255Z,25.88
2022-10-08T01:16:20.184Z,28.75
2022-10-08T01:21:17.880Z,30.38
2022-10-08T01:26:41.722Z,30.40
2022-10-08T01:36:36.056Z,27.13
2022-10-08T01:41:31.857Z,29.30
2022-10-08T01:46:29.718Z,29.95
2022-10-08T01:51:44.285Z,30.65
2022-10-08T01:56:39.701Z,27.50
2022-10-08T02:01:39.668Z,26.67
2022-10-08T02:06:37.976Z,27.17
2022-10-08T02:11:32.350Z,27.05
2022-10-08T02:16:30.938Z,28.15
2022-10-08T02:21:26.744Z,27.35
2022-10-08T02:26:30.708Z,27.50
2022-10-08T02:31:45.975Z,32.45
2022-10-08T02:36:43.383Z,33.35
2022-10-08T02:41:42.740Z,34.72
2022-10-08T02:46:39.031Z,31.05
2022-10-08T02:51:38.271Z,27.13
2022-10-08T02:56:48.437Z,27.45
2022-10-08T03:01:46.722Z,28.25
2022-10-08T03:06:40.232Z,27.88
2022-10-08T03:11:35.353Z,29.30
2022-10-08T03:16:40.774Z,29.20
2022-10-08T03:21:34.392Z,33.47
2022-10-08T03:26:28.216Z,34.50
2022-10-08T03:31:22.679Z,38.28
2022-10-08T03:36:16.946Z,36.25
2022-10-08T03:41:10.806Z,35.72
2022-10-08T03:46:07.948Z,38.63
2022-10-08T03:51:04.917Z,33.85
2022-10-08T03:56:02.124Z,30.75
2022-10-08T04:01:06.018Z,36.20
2022-10-08T04:06:00.374Z,31.38
2022-10-08T04:10:54.856Z,35.58
2022-10-08T04:15:51.382Z,36.55
2022-10-08T04:20:46.014Z,33.25
2022-10-08T04:25:39.848Z,34.85
2022-10-08T04:30:34.047Z,31.23
2022-10-08T04:35:27.809Z,32.33
2022-10-08T04:40:21.783Z,28.23
2022-10-08T04:45:15.971Z,29.13
2022-10-08T04:50:10.805Z,26.67
2022-10-08T04:55:04.442Z,27.33
2022-10-08T05:00:16.987Z,29.42
2022-10-08T05:05:12.355Z,26.00
2022-10-08T05:10:07.838Z,26.27
2022-10-08T05:15:01.689Z,25.42
2022-10-08T05:19:55.873Z,22.77
2022-10-08T05:24:49.426Z,24.83
2022-10-08T05:29:43.415Z,24.77
2022-10-08T05:34:37.468Z,24.35
2022-10-08T05:39:30.841Z,24.65
2022-10-08T05:44:24.920Z,23.67
2022-10-08T05:49:21.627Z,23.33
2022-10-08T05:54:16.600Z,21.05
2022-10-08T05:59:18.235Z,21.65
2022-10-08T06:04:12.851Z,22.23
2022-10-08T06:09:06.774Z,21.67
2022-10-08T06:14:05.239Z,24.23
2022-10-08T06:18:59.731Z,22.25
2022-10-08T06:23:55.327Z,22.13
2022-10-08T06:28:49.661Z,22.58
2022-10-08T06:33:43.115Z,20.50
2022-10-08T06:38:37.082Z,22.83
2022-10-08T06:43:30.884Z,20.85
2022-10-08T06:48:24.447Z,20.92
2022-10-08T06:53:22.437Z,23.13
2022-10-08T06:58:16.201Z,23.33
2022-10-08T07:03:10.590Z,22.15
2022-10-08T07:08:03.736Z,18.42
2022-10-08T07:12:58.142Z,24.65
2022-10-08T07:17:52.223Z,26.08
2022-10-08T07:22:46.633Z,24.20
2022-10-08T07:27:44.855Z,24.70
2022-10-08T07:32:39.192Z,18.23
2022-10-08T07:37:33.455Z,21.30
2022-10-08T07:42:27.611Z,18.50
2022-10-08T07:47:21.980Z,17.13
2022-10-08T07:52:16.169Z,17.35
2022-10-08T07:57:10.329Z,14.45
2022-10-08T08:02:05.246Z,16.65
2022-10-08T08:06:59.536Z,16.15
2022-10-08T08:11:53.593Z,19.58
2022-10-08T08:16:47.713Z,20.02
2022-10-08T08:21:42.422Z,20.00
2022-10-08T08:26:39.733Z,21.63
2022-10-08T08:31:35.090Z,22.33
2022-10-08T08:36:36.266Z,22.17
2022-10-08T08:41:48.795Z,20.95
2022-10-08T08:47:05.537Z,25.13
2022-10-08T08:52:02.456Z,22.35
2022-10-08T08:56:56.407Z,19.70
2022-10-08T09:01:50.300Z,21.65
2022-10-08T09:06:43.368Z,23.88
2022-10-08T09:11:40.210Z,25.35
2022-10-08T09:16:34.787Z,23.88
2022-10-08T09:21:31.640Z,21.92
2022-10-08T09:26:27.220Z,21.20
2022-10-08T09:31:23.012Z,27.73
2022-10-08T09:36:37.751Z,30.45
2022-10-08T09:41:31.884Z,24.95
2022-10-08T09:46:33.883Z,32.10
2022-10-08T09:51:27.861Z,30.00
2022-10-08T09:56:28.663Z,29.23
2022-10-08T10:01:22.317Z,25.95
2022-10-08T10:06:21.013Z,28.25
2022-10-08T10:11:20.599Z,26.83
2022-10-08T10:16:32.002Z,29.52
2022-10-08T10:21:59.801Z,32.08
2022-10-08T10:26:56.823Z,27.45
2022-10-08T10:32:03.987Z,31.92
2022-10-08T10:37:01.854Z,29.13
2022-10-08T10:42:19.205Z,30.27
2022-10-08T10:47:14.137Z,27.27
2022-10-08T10:52:35.349Z,29.42
2022-10-08T10:57:55.608Z,37.33
2022-10-08T11:03:36.700Z,24.30
2022-10-08T11:08:31.674Z,31.05
2022-10-08T11:13:53.299Z,30.15
2022-10-08T11:18:54.684Z,32.03
2022-10-08T11:24:11.836Z,28.77
2022-10-08T11:29:34.815Z,32.05
2022-10-08T11:34:37.133Z,30.00
2022-10-08T11:39:53.747Z,30.10
2022-10-08T11:45:15.647Z,31.95
2022-10-08T11:50:34.292Z,31.40
2022-10-08T11:55:32.503Z,29.13
2022-10-08T12:00:38.806Z,30.42
2022-10-08T12:05:37.958Z,31.27
2022-10-08T12:10:39.481Z,29.95
2022-10-08T12:15:33.657Z,34.85
2022-10-08T12:20:29.693Z,32.70
2022-10-08T12:25:44.631Z,31.83
2022-10-08T12:30:51.796Z,33.90
2022-10-08T12:35:58.891Z,34.85
2022-10-08T12:41:09.949Z,31.48
2022-10-08T12:46:21.408Z,33.30
2022-10-08T12:51:22.809Z,33.08
2022-10-08T12:56:23.630Z,37.38
2022-10-08T13:01:19.599Z,34.67
2022-10-08T13:06:33.817Z,37.72
2022-10-08T13:11:29.021Z,34.13
2022-10-08T13:16:27.111Z,31.00
2022-10-08T13:21:31.681Z,28.33
2022-10-08T13:26:56.902Z,27.90
2022-10-08T13:32:01.234Z,25.50
2022-10-08T13:36:57.933Z,30.30
2022-10-08T13:41:57.120Z,24.65
2022-10-08T13:46:51.540Z,25.73
2022-10-08T13:51:45.595Z,24.38
2022-10-08T13:56:40.213Z,22.40
2022-10-08T14:01:34.658Z,28.67
2022-10-08T14:06:27.486Z,23.95
2022-10-08T14:11:24.866Z,19.58
2022-10-08T14:16:18.063Z,23.88
2022-10-08T14:21:17.008Z,22.25
2022-10-08T14:26:13.831Z,20.38
2022-10-08T14:31:07.920Z,18.35
2022-10-08T14:36:02.324Z,17.33
2022-10-08T14:40:56.521Z,17.85
2022-10-08T14:45:50.440Z,18.85
2022-10-08T14:50:43.925Z,19.48
2022-10-08T14:55:54.439Z,22.17
2022-10-08T15:00:55.621Z,22.23
2022-10-08T15:05:51.041Z,19.48
2022-10-08T15:10:43.693Z,17.23
2022-10-08T15:15:43.536Z,18.63
2022-10-08T15:20:37.755Z,17.30
2022-10-08T15:25:31.814Z,17.27
2022-10-08T15:30:26.166Z,15.52
2022-10-08T15:35:20.004Z,16.75
2022-10-08T15:40:17.661Z,13.13
2022-10-08T15:45:11.926Z,13.82
2022-10-08T15:50:07.032Z,14.25
2022-10-08T15:55:00.608Z,16.27
2022-10-08T15:59:54.586Z,14.30
2022-10-08T16:04:47.808Z,13.85
2022-10-08T16:09:42.271Z,11.15
2022-10-08T16:14:42.691Z,12.05
2022-10-08T16:19:37.100Z,16.73
2022-10-08T16:24:31.260Z,13.80
2022-10-08T16:29:25.336Z,10.13
2022-10-08T16:34:20.820Z,11.70
2022-10-08T16:39:15.548Z,14.82
2022-10-08T16:44:13.908Z,11.23
2022-10-08T16:49:41.758Z,15.50
2022-10-08T16:54:35.962Z,19.27
2022-10-08T16:59:32.024Z,17.48
2022-10-08T17:04:27.456Z,17.20
2022-10-08T17:09:21.200Z,15.88
2022-10-08T17:14:15.200Z,16.17
2022-10-08T17:19:09.354Z,17.85
2022-10-08T17:24:03.568Z,14.85
2022-10-08T17:28:58.203Z,20.65
2022-10-08T17:33:51.448Z,18.67
2022-10-08T17:38:48.155Z,16.45
2022-10-08T17:43:42.490Z,20.70
2022-10-08T17:48:35.881Z,16.45
2022-10-08T17:53:33.465Z,19.85
2022-10-08T17:58:27.483Z,16.15
2022-10-08T18:03:21.304Z,17.55
2022-10-08T18:08:15.860Z,16.50
2022-10-08T18:13:10.046Z,16.75
2022-10-08T18:18:04.528Z,16.58
2022-10-08T18:22:57.974Z,16.27
2022-10-08T18:27:52.862Z,18.15
2022-10-08T18:32:48.203Z,17.85
2022-10-08T18:37:44.662Z,19.40
2022-10-08T18:42:39.443Z,16.98
2022-10-08T18:47:32.923Z,19.42
2022-10-08T18:52:27.983Z,19.92
2022-10-08T18:57:22.390Z,18.92
2022-10-08T19:02:16.450Z,22.17
2022-10-08T19:07:09.671Z,23.35
2022-10-08T19:12:03.835Z,19.67
2022-10-08T19:16:57.250Z,19.42
2022-10-08T19:21:52.853Z,20.85
2022-10-08T19:26:48.053Z,25.75
2022-10-08T19:31:42.272Z,23.48
2022-10-08T19:36:37.725Z,22.45
2022-10-08T19:41:31.418Z,22.50
2022-10-08T19:46:26.683Z,23.60
2022-10-08T19:51:20.531Z,24.95
2022-10-08T19:56:15.992Z,33.38
2022-10-08T20:01:31.198Z,25.02
2022-10-08T20:06:27.415Z,23.17
2022-10-08T20:11:20.508Z,29.45
2022-10-08T20:16:16.475Z,24.23
2022-10-08T20:21:12.442Z,25.00
2022-10-08T20:26:19.452Z,22.27
2022-10-08T20:31:14.593Z,26.25
2022-10-08T20:36:10.263Z,25.83
2022-10-08T20:41:03.928Z,22.73
2022-10-08T20:45:59.893Z,23.13
2022-10-08T20:50:54.368Z,22.35
2022-10-08T20:55:47.609Z,24.70
2022-10-08T21:00:41.832Z,32.47
2022-10-08T21:05:43.486Z,24.58
2022-10-08T21:10:38.357Z,25.35
2022-10-08T21:15:32.900Z,26.23
2022-10-08T21:20:27.473Z,26.25
2022-10-08T21:25:22.198Z,26.65
2022-10-08T21:30:17.043Z,27.15
2022-10-08T21:35:11.191Z,26.70
2022-10-08T21:40:07.064Z,26.35
2022-10-08T21:45:00.000Z,27.25
2022-10-08T21:49:53.846Z,28.70
2022-10-08T21:54:47.132Z,25.30
2022-10-08T21:59:41.525Z,26.38
2022-10-08T22:04:35.241Z,23.20
2022-10-08T22:09:30.840Z,24.10
2022-10-08T22:14:25.087Z,26.70
2022-10-08T22:19:19.288Z,28.88
2022-10-08T22:24:13.087Z,26.90
2022-10-08T22:29:11.291Z,24.55
2022-10-08T22:34:05.084Z,24.55
2022-10-08T22:38:59.347Z,24.40
2022-10-08T22:43:53.779Z,28.98
2022-10-08T22:48:47.702Z,26.63
2022-10-08T22:53:41.520Z,29.00
2022-10-08T22:58:36.375Z,26.25
2022-10-08T23:03:30.079Z,30.02
2022-10-08T23:08:24.405Z,25.55
2022-10-08T23:13:18.166Z,29.38
2022-10-08T23:18:12.056Z,30.00
2022-10-08T23:23:05.567Z,26.58
2022-10-08T23:27:59.028Z,28.00
2022-10-08T23:32:52.603Z,28.10
2022-10-08T23:37:48.022Z,29.80
2022-10-08T23:42:42.336Z,23.30
2022-10-08T23:47:36.677Z,25.35
2022-10-08T23:52:30.673Z,30.15
2022-10-08T23:57:24.492Z,31.42
